| time (UTC) | temp C | wind direction | speed KPH | gust KPH | rain 1hr cm | rain 24hr cm | rain mn cm | humidity % | barometer mb |
| 20260508055055 | 8 | 325 | 4.8 | 17.7 | 0.00 | 0.00 | 2.13 | 99 | 1016.7 |
| 20260508054555 | 8 | 344 | 3.2 | 8.0 | 0.00 | 0.00 | 2.13 | 99 | 1016.7 |
| 20260508054101 | 8 | 335 | 6.4 | 14.5 | 0.00 | 0.00 | 2.13 | 99 | 1016.6 |
| 20260508053555 | 10 | 2 | 12.9 | 17.7 | 0.00 | 0.00 | 2.13 | 99 | 1016.5 |
| 20260508053055 | 10 | 354 | 11.3 | 20.9 | 0.00 | 0.00 | 2.13 | 99 | 1016.3 |
| 20260508052555 | 8 | 344 | 6.4 | 11.3 | 0.00 | 0.00 | 2.13 | 99 | 1016.4 |
| 20260508052055 | 8 | 319 | 6.4 | 17.7 | 0.00 | 0.00 | 2.13 | 99 | 1016.5 |
| 20260508051555 | 8 | 316 | 8.0 | 14.5 | 0.00 | 0.00 | 2.13 | 99 | 1016.4 |
| 20260508051055 | 8 | 349 | 8.0 | 20.9 | 0.00 | 0.00 | 2.13 | 99 | 1016.5 |
| 20260508050555 | 8 | 346 | 9.7 | 11.3 | 0.00 | 0.00 | 2.13 | 99 | 1016.4 |
| 20260508050055 | 10 | 331 | 16.1 | 17.7 | 0.00 | 0.00 | 2.13 | 99 | 1016.4 |
| 20260508045555 | 10 | 347 | 3.2 | 6.4 | 0.00 | 0.00 | 2.13 | 99 | 1016.3 |
| 20260508045055 | 10 | 336 | 3.2 | 11.3 | 0.00 | 0.00 | 2.13 | 99 | 1016.2 |
| 20260508044555 | 8 | 325 | 6.4 | 8.0 | 0.00 | 0.00 | 2.13 | 99 | 1016.3 |
| 20260508044055 | 8 | 312 | 6.4 | 8.0 | 0.00 | 0.00 | 2.13 | 99 | 1016.3 |
| 20260508043555 | 8 | 326 | 3.2 | 11.3 | 0.00 | 0.00 | 2.13 | 99 | 1016.4 |
| 20260508043055 | 8 | 306 | 8.0 | 17.7 | 0.00 | 0.00 | 2.13 | 99 | 1016.4 |
| 20260508042555 | 8 | 314 | 9.7 | 14.5 | 0.13 | 0.00 | 2.13 | 99 | 1016.2 |
| 20260508042055 | 8 | 335 | 4.8 | 8.0 | 0.13 | 0.00 | 2.13 | 99 | 1016.1 |
| 20260508041555 | 8 | 338 | 14.5 | 17.7 | 0.00 | 0.00 | 2.11 | 99 | 1016.2 |
| 20260508041055 | 8 | 288 | 11.3 | 17.7 | 0.00 | 0.00 | 2.11 | 99 | 1015.9 |
| 20260508040555 | 8 | 289 | 14.5 | 27.4 | 0.18 | 0.00 | 2.11 | 99 | 1016.1 |
| 20260508040055 | 8 | 340 | 14.5 | 20.9 | 0.18 | 0.00 | 2.11 | 99 | 1015.6 |
| 20260508035555 | 8 | 19 | 17.7 | 24.1 | 0.13 | 0.00 | 2.08 | 99 | 1015.5 |
| 20260508035055 | 8 | 344 | 12.9 | 20.9 | 0.13 | 0.00 | 2.08 | 99 | 1015.3 |
| 20260508034555 | 10 | 356 | 9.7 | 17.7 | 0.00 | 0.00 | 2.06 | 99 | 1015.5 |
| 20260508034055 | 10 | 336 | 16.1 | 20.9 | 0.18 | 0.00 | 2.06 | 99 | 1015.7 |
| 20260508033555 | 10 | 331 | 1.6 | 17.7 | 0.18 | 0.00 | 2.06 | 99 | 1015.5 |
| 20260508033055 | 10 | 319 | 11.3 | 17.7 | 0.18 | 0.00 | 2.03 | 99 | 1015.5 |
| 20260508032555 | 10 | 316 | 6.4 | 11.3 | 0.48 | 0.00 | 2.03 | 99 | 1015.5 |
| 20260508032055 | 10 | 335 | 8.0 | 20.9 | 0.30 | 0.00 | 1.98 | 99 | 1015.5 |
| 20260508031555 | 10 | 7 | 12.9 | 14.5 | 0.41 | 0.00 | 1.96 | 99 | 1015.4 |
| 20260508031055 | 10 | 4 | 4.8 | 11.3 | 0.41 | 0.00 | 1.91 | 99 | 1015.3 |
| 20260508030555 | 10 | 0 | 6.4 | 11.3 | 0.61 | 0.00 | 1.88 | 99 | 1015.2 |
| 20260508030055 | 10 | 357 | 8.0 | 11.3 | 0.97 | 0.00 | 1.83 | 99 | 1015.5 |
| 20260508025555 | 10 | 339 | 1.6 | 6.4 | 0.89 | 0.00 | 1.75 | 99 | 1015.2 |
| 20260508025055 | 10 | 339 | 1.6 | 6.4 | 0.61 | 0.00 | 1.65 | 99 | 1015.4 |
| 20260508024555 | 10 | 304 | 1.6 | 6.4 | 0.41 | 0.00 | 1.57 | 99 | 1015.4 |
| 20260508024055 | 10 | 304 | 6.4 | 8.0 | 0.41 | 0.00 | 1.52 | 99 | 1015.4 |
| 20260508023555 | 10 | 287 | 6.4 | 8.0 | 0.48 | 0.00 | 1.47 | 99 | 1015.3 |
| 20260508023055 | 10 | 353 | 1.6 | 3.2 | 0.48 | 0.00 | 1.42 | 99 | 1015.4 |
| 20260508022555 | 10 | 7 | 4.8 | 11.3 | 0.71 | 0.00 | 1.40 | 99 | 1015.4 |
| 20260508022055 | 10 | 21 | 9.7 | 14.5 | 0.61 | 0.00 | 1.32 | 99 | 1015.4 |
| 20260508021555 | 10 | 353 | 4.8 | 14.5 | 0.61 | 0.00 | 1.27 | 99 | 1015.4 |
| 20260508021055 | 10 | 338 | 8.0 | 17.7 | 0.61 | 0.00 | 1.22 | 99 | 1015.5 |
| 20260508020555 | 10 | 346 | 9.7 | 20.9 | 0.66 | 0.00 | 1.17 | 99 | 1015.4 |
| 20260508020055 | 10 | 324 | 11.3 | 17.7 | 0.48 | 0.00 | 1.12 | 99 | 1015.4 |
| 20260508015555 | 10 | 325 | 19.3 | 24.1 | 0.41 | 0.00 | 1.07 | 99 | 1015.2 |
| 20260508015055 | 10 | 315 | 14.5 | 20.9 | 0.41 | 0.00 | 1.02 | 99 | 1015.3 |
| 20260508014555 | 10 | 324 | 12.9 | 17.7 | 0.61 | 0.00 | 0.99 | 99 | 1015.3 |
| 20260508014055 | 10 | 283 | 6.4 | 14.5 | 0.48 | 0.00 | 0.94 | 99 | 1015.1 |
| 20260508013555 | 10 | 276 | 6.4 | 17.7 | 0.48 | 0.00 | 0.89 | 99 | 1015.2 |
| 20260508013055 | 11 | 300 | 8.0 | 11.3 | 0.41 | 0.00 | 0.86 | 99 | 1015.3 |
| 20260508012555 | 11 | 296 | 8.0 | 17.7 | 0.61 | 0.00 | 0.81 | 99 | 1015.3 |
| 20260508012055 | 11 | 306 | 12.9 | 17.7 | 0.89 | 0.00 | 0.76 | 99 | 1014.9 |
| 20260508011555 | 11 | 304 | 11.3 | 27.4 | 0.71 | 0.00 | 0.69 | 99 | 1015.1 |
| 20260508011055 | 11 | 260 | 6.4 | 8.0 | 0.48 | 0.00 | 0.61 | 99 | 1015.0 |
| 20260508010555 | 11 | 276 | 0.0 | 0.0 | 0.61 | 0.00 | 0.56 | 99 | 1014.9 |
| 20260508010055 | 11 | 265 | 0.0 | 0.0 | 1.09 | 0.00 | 0.51 | 99 | 1015.0 |
| 20260508005555 | 11 | 264 | 3.2 | 6.4 | 1.37 | 0.00 | 0.43 | 99 | 1014.9 |
| 20260508005055 | 11 | 245 | 9.7 | 11.3 | 1.50 | 0.00 | 0.30 | 99 | 1014.8 |
| 20260508004555 | 11 | 218 | 1.6 | 6.4 | 0.97 | 0.00 | 0.18 | 99 | 1014.7 |
| 20260508004055 | 11 | 218 | 1.6 | 3.2 | 0.13 | 0.00 | 0.03 | 99 | 1014.8 |
| 20260508003555 | 11 | 218 | 0.0 | 0.0 | 0.13 | 0.00 | 0.03 | 99 | 1014.7 |
| 20260508003055 | 11 | 218 | 3.2 | 3.2 | 0.00 | 0.00 | 0.00 | 99 | 1014.8 |
| 20260508002555 | 11 | 218 | 0.0 | 0.0 | 0.00 | 0.00 | 0.00 | 99 | 1014.8 |
| 20260508002055 | 11 | 218 | 0.0 | 0.0 | 0.00 | 0.00 | 0.00 | 99 | 1015.0 |
| 20260508001555 | 11 | 218 | 0.0 | 0.0 | 0.00 | 0.00 | 0.00 | 99 | 1015.0 |
| 20260508001055 | 11 | 218 | 0.0 | 0.0 | 0.00 | 0.00 | 0.00 | 99 | 1014.8 |
| 20260508000555 | 11 | 218 | 0.0 | 0.0 | 0.00 | 0.00 | 0.00 | 99 | 1014.8 |
| 20260508000055 | 11 | 218 | 0.0 | 0.0 | 0.00 | 0.00 | 0.00 | 99 | 1014.9 |
| 20260507235555 | 11 | 218 | 0.0 | 3.2 | 0.00 | 0.00 | 0.00 | 98 | 1014.8 |
| 20260507235055 | 11 | 218 | 1.6 | 3.2 | 0.00 | 0.00 | 0.00 | 98 | 1014.8 |
| 20260507234555 | 11 | 218 | 1.6 | 3.2 | 0.00 | 0.00 | 0.00 | 98 | 1014.7 |
| 20260507234055 | 11 | 331 | 3.2 | 6.4 | 0.00 | 0.00 | 0.00 | 98 | 1014.8 |
| 20260507233555 | 11 | 332 | 0.0 | 0.0 | 0.00 | 0.00 | 0.00 | 98 | 1014.8 |
| 20260507233055 | 11 | 332 | 0.0 | 0.0 | 0.00 | 0.00 | 0.00 | 98 | 1014.9 |
| 20260507232555 | 11 | 332 | 0.0 | 3.2 | 0.00 | 0.00 | 0.00 | 98 | 1014.8 |
| 20260507232055 | 11 | 332 | 0.0 | 0.0 | 0.00 | 0.00 | 0.00 | 98 | 1015.2 |
| 20260507231555 | 11 | 331 | 3.2 | 3.2 | 0.00 | 0.00 | 0.00 | 98 | 1015.1 |
| 20260507231055 | 11 | 331 | 1.6 | 3.2 | 0.00 | 0.00 | 0.00 | 98 | 1015.0 |
| 20260507230555 | 11 | 332 | 1.6 | 3.2 | 0.00 | 0.00 | 0.00 | 98 | 1014.9 |
| 20260507230055 | 11 | 332 | 0.0 | 3.2 | 0.00 | 0.00 | 0.00 | 98 | 1014.9 |
| 20260507225555 | 11 | 332 | 3.2 | 6.4 | 0.00 | 0.00 | 0.00 | 98 | 1015.1 |
| 20260507225055 | 11 | 332 | 3.2 | 6.4 | 0.00 | 0.00 | 0.00 | 98 | 1014.9 |
| 20260507224555 | 11 | 332 | 6.4 | 8.0 | 0.00 | 0.00 | 0.00 | 98 | 1014.9 |
| 20260507224055 | 11 | 331 | 4.8 | 6.4 | 0.00 | 0.00 | 0.00 | 98 | 1015.1 |
| 20260507223555 | 11 | 331 | 0.0 | 6.4 | 0.00 | 0.00 | 0.00 | 98 | 1015.0 |
| 20260507223055 | 11 | 331 | 4.8 | 8.0 | 0.00 | 0.00 | 0.00 | 98 | 1014.9 |
| 20260507222555 | 11 | 329 | 9.7 | 11.3 | 0.00 | 0.00 | 0.00 | 98 | 1014.8 |
| 20260507222055 | 11 | 301 | 8.0 | 8.0 | 0.00 | 0.00 | 0.00 | 98 | 1014.9 |
| 20260507221555 | 11 | 293 | 4.8 | 6.4 | 0.00 | 0.00 | 0.00 | 98 | 1015.0 |
| 20260507221055 | 11 | 290 | 6.4 | 8.0 | 0.00 | 0.00 | 0.00 | 98 | 1014.9 |
| 20260507220555 | 11 | 287 | 4.8 | 8.0 | 0.00 | 0.00 | 0.00 | 97 | 1015.1 |
| 20260507220055 | 11 | 290 | 6.4 | 11.3 | 0.00 | 0.00 | 0.23 | 97 | 1015.0 |
| 20260507215555 | 11 | 292 | 4.8 | 8.0 | 0.00 | 0.00 | 0.23 | 97 | 1014.9 |
| 20260507215055 | 11 | 312 | 6.4 | 8.0 | 0.00 | 0.00 | 0.23 | 97 | 1014.8 |
| 20260507214555 | 11 | 297 | 1.6 | 3.2 | 0.00 | 0.00 | 0.23 | 97 | 1014.8 |
| 20260507214055 | 11 | 307 | 6.4 | 11.3 | 0.00 | 0.00 | 0.23 | 97 | 1014.8 |
| 20260507213555 | 12 | 284 | 6.4 | 11.3 | 0.00 | 0.00 | 0.23 | 97 | 1014.6 |
| 20260507213055 | 12 | 85 | 0.0 | 3.2 | 0.00 | 0.00 | 0.23 | 97 | 1014.7 |
| 20260507212555 | 12 | 85 | 4.8 | 6.4 | 0.00 | 0.00 | 0.23 | 97 | 1014.4 |
| 20260507212055 | 12 | 68 | 1.6 | 6.4 | 0.00 | 0.00 | 0.23 | 97 | 1014.3 |
| 20260507211555 | 12 | 68 | 3.2 | 6.4 | 0.00 | 0.00 | 0.23 | 97 | 1014.3 |
| 20260507211055 | 12 | 68 | 3.2 | 6.4 | 0.00 | 0.00 | 0.23 | 96 | 1014.3 |
| 20260507210555 | 12 | 68 | 4.8 | 6.4 | 0.00 | 0.00 | 0.23 | 96 | 1014.3 |
| 20260507210055 | 11 | 68 | 1.6 | 6.4 | 0.00 | 0.00 | 0.23 | 96 | 1014.3 |
| 20260507205555 | 11 | 68 | 0.0 | 3.2 | 0.00 | 0.00 | 0.23 | 96 | 1014.4 |
| 20260507205055 | 11 | 68 | 0.0 | 0.0 | 0.00 | 0.00 | 0.23 | 96 | 1014.3 |
| 20260507204555 | 11 | 68 | 0.0 | 0.0 | 0.00 | 0.00 | 0.23 | 96 | 1014.2 |
| 20260507204055 | 11 | 68 | 0.0 | 0.0 | 0.00 | 0.00 | 0.23 | 96 | 1014.3 |
| 20260507203555 | 11 | 68 | 0.0 | 0.0 | 0.00 | 0.00 | 0.23 | 95 | 1014.2 |
| 20260507203055 | 11 | 68 | 3.2 | 6.4 | 0.00 | 0.00 | 0.23 | 95 | 1014.3 |
| 20260507202555 | 12 | 68 | 3.2 | 6.4 | 0.00 | 0.00 | 0.23 | 95 | 1014.2 |
| 20260507202055 | 12 | 68 | 0.0 | 3.2 | 0.00 | 0.00 | 0.23 | 95 | 1014.2 |
| 20260507201555 | 12 | 68 | 0.0 | 3.2 | 0.00 | 0.00 | 0.23 | 95 | 1014.0 |
| 20260507201055 | 12 | 68 | 6.4 | 8.0 | 0.00 | 0.00 | 0.23 | 95 | 1013.8 |
| 20260507200555 | 12 | 55 | 3.2 | 14.5 | 0.18 | 0.00 | 0.23 | 95 | 1013.7 |
| 20260507200055 | 12 | 68 | 8.0 | 14.5 | 0.18 | 0.00 | 0.23 | 95 | 1013.8 |
| 20260507195555 | 12 | 52 | 12.9 | 24.1 | 0.13 | 0.00 | 0.20 | 94 | 1013.5 |
| 20260507195055 | 12 | 79 | 6.4 | 11.3 | 0.13 | 0.00 | 0.20 | 94 | 1013.8 |
| 20260507194555 | 12 | 77 | 16.1 | 20.9 | 0.30 | 0.00 | 0.18 | 94 | 1013.7 |
| 20260507194055 | 12 | 70 | 9.7 | 14.5 | 0.61 | 0.00 | 0.15 | 93 | 1013.7 |
| 20260507193555 | 12 | 41 | 8.0 | 14.5 | 0.48 | 0.00 | 0.13 | 93 | 1014.0 |
| 20260507193055 | 12 | 38 | 4.8 | 6.4 | 0.18 | 0.00 | 0.05 | 92 | 1014.0 |
| 20260507192555 | 12 | 20 | 0.0 | 6.4 | 0.30 | 0.00 | 0.05 | 92 | 1014.0 |
| 20260507192055 | 12 | 20 | 1.6 | 6.4 | 0.13 | 0.00 | 0.03 | 92 | 1013.9 |
| 20260507191555 | 12 | 7 | 6.4 | 8.0 | 0.00 | 0.00 | 0.00 | 91 | 1014.0 |
| 20260507191055 | 12 | 340 | 1.6 | 8.0 | 0.00 | 0.00 | 0.00 | 91 | 1014.0 |
| 20260507190555 | 12 | 18 | 9.7 | 17.7 | 0.00 | 0.00 | 0.00 | 91 | 1013.7 |
| 20260507190055 | 12 | 19 | 9.7 | 24.1 | 0.00 | 0.00 | 0.00 | 91 | 1013.7 |
| 20260507185555 | 12 | 22 | 20.9 | 35.4 | 0.00 | 0.00 | 0.00 | 90 | 1013.3 |
| 20260507185055 | 12 | 26 | 22.5 | 32.2 | 0.00 | 0.00 | 0.00 | 90 | 1013.4 |
| 20260507184555 | 12 | 49 | 22.5 | 29.0 | 0.00 | 0.00 | 0.00 | 89 | 1013.3 |
| 20260507184055 | 12 | 52 | 9.7 | 27.4 | 0.00 | 0.00 | 0.00 | 87 | 1013.1 |
| 20260507183555 | 12 | 51 | 22.5 | 27.4 | 0.00 | 0.00 | 0.00 | 86 | 1013.1 |
| 20260507183055 | 12 | 13 | 9.7 | 14.5 | 0.00 | 0.00 | 0.00 | 85 | 1012.8 |
| 20260507182555 | 12 | 48 | 24.1 | 29.0 | 0.00 | 0.00 | 0.00 | 84 | 1012.8 |
| 20260507182055 | 12 | 41 | 22.5 | 35.4 | 0.00 | 0.00 | 0.00 | 84 | 1012.5 |
| 20260507181555 | 12 | 51 | 17.7 | 24.1 | 0.00 | 0.00 | 0.00 | 83 | 1012.5 |
| 20260507181055 | 12 | 33 | 20.9 | 29.0 | 0.00 | 0.00 | 0.00 | 83 | 1012.4 |
| 20260507180555 | 12 | 342 | 12.9 | 24.1 | 0.00 | 0.00 | 0.00 | 84 | 1012.5 |
| 20260507180055 | 12 | 310 | 14.5 | 20.9 | 0.00 | 0.00 | 0.00 | 83 | 1012.5 |
| 20260507175555 | 12 | 315 | 16.1 | 24.1 | 0.00 | 0.00 | 0.00 | 82 | 1012.3 |
| 20260507175055 | 12 | 339 | 6.4 | 20.9 | 0.00 | 0.00 | 0.00 | 81 | 1012.0 |
| 20260507174555 | 13 | 359 | 6.4 | 20.9 | 0.00 | 0.00 | 0.00 | 81 | 1011.9 |
| 20260507174055 | 13 | 0 | 12.9 | 14.5 | 0.00 | 0.00 | 0.00 | 80 | 1011.7 |
| 20260507173555 | 13 | 345 | 11.3 | 17.7 | 0.00 | 0.00 | 0.00 | 80 | 1011.6 |
| 20260507173055 | 13 | 18 | 9.7 | 17.7 | 0.00 | 0.00 | 0.00 | 82 | 1011.6 |
| 20260507172555 | 15 | 25 | 11.3 | 14.5 | 0.00 | 0.00 | 0.00 | 81 | 1011.3 |
| 20260507172055 | 15 | 41 | 4.8 | 11.3 | 0.00 | 0.00 | 0.00 | 81 | 1011.4 |
| 20260507171555 | 15 | 42 | 19.3 | 24.1 | 0.00 | 0.00 | 0.00 | 80 | 1011.3 |
| 20260507171055 | 15 | 44 | 11.3 | 20.9 | 0.00 | 0.00 | 0.00 | 79 | 1011.1 |
| 20260507170555 | 15 | 11 | 16.1 | 17.7 | 0.00 | 0.00 | 0.00 | 79 | 1011.0 |
| 20260507170055 | 15 | 31 | 11.3 | 17.7 | 0.00 | 0.00 | 0.00 | 78 | 1010.9 |
| 20260507165555 | 15 | 28 | 4.8 | 11.3 | 0.00 | 0.00 | 0.00 | 77 | 1010.8 |
| 20260507165055 | 15 | 31 | 11.3 | 14.5 | 0.00 | 0.00 | 0.00 | 77 | 1011.0 |
| 20260507164555 | 15 | 9 | 3.2 | 14.5 | 0.00 | 0.00 | 0.00 | 78 | 1010.9 |
| 20260507164055 | 15 | 27 | 6.4 | 11.3 | 0.00 | 0.00 | 0.00 | 78 | 1011.0 |
| 20260507163555 | 16 | 22 | 4.8 | 6.4 | 0.00 | 0.00 | 0.00 | 78 | 1011.0 |
| 20260507163055 | 16 | 22 | 3.2 | 8.0 | 0.00 | 0.00 | 0.00 | 78 | 1010.8 |
| 20260507162555 | 16 | 39 | 8.0 | 17.7 | 0.00 | 0.00 | 0.00 | 77 | 1010.6 |
| 20260507162055 | 16 | 60 | 11.3 | 17.7 | 0.00 | 0.00 | 0.00 | 78 | 1010.7 |
| 20260507161555 | 15 | 35 | 20.9 | 29.0 | 0.00 | 0.00 | 0.00 | 79 | 1010.7 |
| 20260507161055 | 16 | 343 | 9.7 | 14.5 | 0.00 | 0.00 | 0.00 | 80 | 1010.6 |
| 20260507160555 | 16 | 98 | 0.0 | 3.2 | 0.00 | 0.00 | 0.00 | 80 | 1010.5 |
| 20260507160055 | 16 | 125 | 6.4 | 14.5 | 0.00 | 0.00 | 0.00 | 79 | 1010.6 |
| 20260507155555 | 16 | 103 | 8.0 | 11.3 | 0.00 | 0.00 | 0.00 | 79 | 1010.4 |
| 20260507155055 | 16 | 107 | 8.0 | 14.5 | 0.00 | 0.00 | 0.00 | 78 | 1010.6 |
| 20260507154555 | 16 | 125 | 12.9 | 17.7 | 0.00 | 0.00 | 0.00 | 79 | 1010.5 |
| 20260507154055 | 16 | 114 | 14.5 | 17.7 | 0.00 | 0.00 | 0.00 | 78 | 1010.7 |
| 20260507153555 | 16 | 131 | 9.7 | 17.7 | 0.00 | 0.00 | 0.00 | 76 | 1010.5 |
| 20260507153055 | 16 | 103 | 6.4 | 8.0 | 0.00 | 0.00 | 0.00 | 77 | 1010.5 |
| 20260507152555 | 16 | 126 | 8.0 | 11.3 | 0.00 | 0.00 | 0.00 | 77 | 1010.6 |
| 20260507152055 | 16 | 122 | 1.6 | 11.3 | 0.00 | 0.00 | 0.00 | 78 | 1010.4 |
| 20260507151555 | 16 | 131 | 3.2 | 14.5 | 0.00 | 0.00 | 0.00 | 79 | 1010.4 |
| 20260507151055 | 16 | 138 | 6.4 | 14.5 | 0.00 | 0.00 | 0.00 | 79 | 1010.3 |
| 20260507150555 | 16 | 104 | 9.7 | 14.5 | 0.00 | 0.00 | 0.00 | 79 | 1010.4 |
| 20260507150055 | 16 | 119 | 8.0 | 14.5 | 0.00 | 0.00 | 0.00 | 80 | 1010.3 |
| 20260507145555 | 16 | 122 | 9.7 | 17.7 | 0.00 | 0.00 | 0.00 | 82 | 1010.3 |
| 20260507145055 | 17 | 109 | 1.6 | 11.3 | 0.00 | 0.00 | 0.00 | 82 | 1010.2 |
| 20260507144555 | 16 | 115 | 4.8 | 11.3 | 0.00 | 0.00 | 0.00 | 80 | 1010.2 |
| 20260507144055 | 16 | 76 | 8.0 | 14.5 | 0.00 | 0.00 | 0.00 | 77 | 1010.4 |
| 20260507143555 | 16 | 116 | 6.4 | 11.3 | 0.00 | 0.00 | 0.00 | 78 | 1010.5 |
| 20260507143055 | 16 | 130 | 8.0 | 14.5 | 0.00 | 0.00 | 0.00 | 78 | 1010.4 |
| 20260507142555 | 16 | 104 | 8.0 | 11.3 | 0.00 | 0.00 | 0.00 | 77 | 1010.4 |
| 20260507142055 | 16 | 149 | 12.9 | 20.9 | 0.00 | 0.00 | 0.00 | 78 | 1010.5 |
| 20260507141555 | 16 | 112 | 4.8 | 8.0 | 0.00 | 0.00 | 0.00 | 80 | 1010.5 |
| 20260507141055 | 17 | 92 | 12.9 | 17.7 | 0.00 | 0.00 | 0.00 | 77 | 1010.5 |
| 20260507140555 | 17 | 93 | 8.0 | 14.5 | 0.00 | 0.00 | 0.00 | 75 | 1010.3 |
| 20260507140055 | 17 | 84 | 9.7 | 17.7 | 0.00 | 0.00 | 0.00 | 70 | 1010.1 |
| 20260507135555 | 17 | 119 | 3.2 | 14.5 | 0.00 | 0.00 | 0.00 | 69 | 1010.3 |
| 20260507135055 | 17 | 116 | 9.7 | 14.5 | 0.00 | 0.00 | 0.00 | 66 | 1010.0 |
| 20260507134555 | 17 | 118 | 8.0 | 11.3 | 0.00 | 0.00 | 0.00 | 64 | 1010.3 |
| 20260507134055 | 17 | 114 | 8.0 | 17.7 | 0.00 | 0.00 | 0.00 | 64 | 1010.3 |
| 20260507133555 | 17 | 132 | 9.7 | 14.5 | 0.00 | 0.00 | 0.00 | 63 | 1010.1 |
| 20260507133055 | 18 | 95 | 12.9 | 14.5 | 0.00 | 0.00 | 0.00 | 61 | 1009.9 |
| 20260507132555 | 18 | 118 | 0.0 | 3.2 | 0.00 | 0.00 | 0.00 | 60 | 1010.1 |
| 20260507132055 | 18 | 118 | 3.2 | 6.4 | 0.00 | 0.00 | 0.00 | 59 | 1010.0 |
| 20260507131555 | 18 | 118 | 6.4 | 6.4 | 0.00 | 0.00 | 0.00 | 59 | 1009.7 |
| 20260507131055 | 20 | 209 | 0.0 | 6.4 | 0.00 | 0.00 | 0.00 | 58 | 1009.8 |
| 20260507130555 | 20 | 209 | 1.6 | 11.3 | 0.00 | 0.00 | 0.00 | 58 | 1010.0 |
| 20260507130055 | 20 | 210 | 0.0 | 3.2 | 0.00 | 0.00 | 0.00 | 58 | 1010.0 |
| 20260507125555 | 18 | 210 | 3.2 | 8.0 | 0.00 | 0.00 | 0.00 | 60 | 1010.0 |
| 20260507125055 | 18 | 207 | 4.8 | 8.0 | 0.00 | 0.00 | 0.00 | 60 | 1010.1 |
| 20260507124555 | 18 | 207 | 0.0 | 3.2 | 0.00 | 0.00 | 0.00 | 60 | 1010.7 |
| 20260507124055 | 18 | 207 | 6.4 | 11.3 | 0.00 | 0.00 | 0.00 | 60 | 1010.2 |
| 20260507123555 | 18 | 240 | 6.4 | 8.0 | 0.00 | 0.00 | 0.00 | 60 | 1010.2 |
| 20260507123055 | 18 | 267 | 3.2 | 6.4 | 0.00 | 0.00 | 0.00 | 60 | 1010.2 |
| 20260507122555 | 18 | 267 | 4.8 | 11.3 | 0.00 | 0.00 | 0.00 | 60 | 1010.2 |
| 20260507122055 | 18 | 252 | 9.7 | 11.3 | 0.00 | 0.00 | 0.00 | 60 | 1010.0 |
| 20260507121555 | 18 | 315 | 1.6 | 3.2 | 0.00 | 0.00 | 0.00 | 60 | 1010.1 |
| 20260507121055 | 18 | 315 | 6.4 | 8.0 | 0.00 | 0.00 | 0.00 | 60 | 1010.1 |
| 20260507120555 | 18 | 289 | 14.5 | 17.7 | 0.00 | 0.00 | 0.00 | 60 | 1010.3 |
| 20260507120055 | 18 | 289 | 4.8 | 11.3 | 0.00 | 0.00 | 0.00 | 60 | 1010.2 |
| 20260507115555 | 18 | 276 | 17.7 | 20.9 | 0.00 | 0.00 | 0.00 | 59 | 1010.2 |
| 20260507115055 | 18 | 268 | 8.0 | 8.0 | 0.00 | 0.00 | 0.00 | 59 | 1010.0 |
| 20260507114555 | 18 | 260 | 6.4 | 17.7 | 0.00 | 0.00 | 0.00 | 60 | 1010.0 |
| 20260507114055 | 18 | 241 | 11.3 | 11.3 | 0.00 | 0.00 | 0.00 | 61 | 1010.2 |
| 20260507113555 | 18 | 282 | 0.0 | 8.0 | 0.00 | 0.00 | 0.00 | 61 | 1010.1 |
| 20260507113055 | 18 | 320 | 8.0 | 17.7 | 0.00 | 0.00 | 0.00 | 62 | 1010.1 |
| 20260507112555 | 17 | 286 | 11.3 | 14.5 | 0.00 | 0.00 | 0.00 | 62 | 1010.2 |
| 20260507112055 | 17 | 263 | 14.5 | 17.7 | 0.00 | 0.00 | 0.00 | 63 | 1010.4 |
| 20260507111555 | 17 | 241 | 8.0 | 11.3 | 0.00 | 0.00 | 0.00 | 64 | 1010.5 |
| 20260507111055 | 17 | 273 | 8.0 | 17.7 | 0.00 | 0.00 | 0.00 | 64 | 1010.4 |
| 20260507110555 | 17 | 235 | 11.3 | 14.5 | 0.00 | 0.00 | 0.00 | 65 | 1010.3 |
| 20260507110055 | 17 | 260 | 6.4 | 11.3 | 0.00 | 0.00 | 0.00 | 65 | 1010.5 |
| 20260507105555 | 17 | 248 | 9.7 | 14.5 | 0.00 | 0.00 | 0.00 | 65 | 1010.2 |
| 20260507105055 | 17 | 246 | 8.0 | 11.3 | 0.00 | 0.00 | 0.00 | 65 | 1010.4 |
| 20260507104555 | 17 | 218 | 0.0 | 14.5 | 0.00 | 0.00 | 0.00 | 64 | 1010.2 |
| 20260507104055 | 17 | 259 | 9.7 | 17.7 | 0.00 | 0.00 | 0.00 | 65 | 1010.4 |
| 20260507103555 | 17 | 271 | 11.3 | 14.5 | 0.00 | 0.00 | 0.00 | 67 | 1010.4 |
| 20260507103055 | 17 | 266 | 17.7 | 27.4 | 0.00 | 0.00 | 0.00 | 66 | 1010.4 |
| 20260507102555 | 17 | 274 | 11.3 | 17.7 | 0.00 | 0.00 | 0.00 | 66 | 1010.3 |
| 20260507102055 | 17 | 225 | 19.3 | 29.0 | 0.00 | 0.00 | 0.00 | 65 | 1010.1 |
| 20260507101555 | 17 | 233 | 11.3 | 24.1 | 0.00 | 0.00 | 0.00 | 65 | 1010.0 |
| 20260507101055 | 17 | 215 | 16.1 | 20.9 | 0.00 | 0.00 | 0.00 | 64 | 1010.1 |
| 20260507100555 | 17 | 276 | 12.9 | 14.5 | 0.00 | 0.00 | 0.00 | 64 | 1010.0 |
| 20260507100055 | 17 | 206 | 14.5 | 27.4 | 0.00 | 0.00 | 0.00 | 66 | 1010.1 |
| 20260507095555 | 17 | 227 | 17.7 | 27.4 | 0.00 | 0.00 | 0.00 | 66 | 1010.0 |
| 20260507095055 | 17 | 263 | 14.5 | 27.4 | 0.00 | 0.00 | 0.00 | 66 | 1010.0 |
| 20260507094555 | 17 | 239 | 12.9 | 20.9 | 0.00 | 0.00 | 0.00 | 64 | 1009.7 |
| 20260507094055 | 17 | 262 | 14.5 | 24.1 | 0.00 | 0.00 | 0.00 | 68 | 1010.0 |
| 20260507093555 | 17 | 231 | 12.9 | 35.4 | 0.00 | 0.00 | 0.00 | 69 | 1010.1 |
| 20260507093055 | 17 | 272 | 16.1 | 27.4 | 0.00 | 0.00 | 0.00 | 70 | 1009.9 |
| 20260507092555 | 17 | 286 | 16.1 | 24.1 | 0.00 | 0.00 | 0.00 | 71 | 1009.8 |
| 20260507092055 | 17 | 273 | 22.5 | 29.0 | 0.00 | 0.00 | 0.00 | 71 | 1009.9 |
| 20260507091555 | 17 | 206 | 14.5 | 32.2 | 0.00 | 0.00 | 0.00 | 72 | 1009.7 |
| 20260507091055 | 17 | 283 | 25.7 | 32.2 | 0.00 | 0.00 | 0.00 | 71 | 1009.7 |
| 20260507090555 | 17 | 264 | 9.7 | 17.7 | 0.00 | 0.00 | 0.00 | 72 | 1009.6 |
| 20260507090055 | 17 | 246 | 17.7 | 20.9 | 0.00 | 0.00 | 0.00 | 72 | 1009.5 |
| 20260507085555 | 17 | 237 | 19.3 | 35.4 | 0.00 | 0.00 | 0.00 | 71 | 1009.4 |
| 20260507085059 | 17 | 271 | 20.9 | 27.4 | 0.00 | 0.00 | 0.00 | 72 | 1009.3 |
| 20260507084559 | 17 | 280 | 19.3 | 27.4 | 0.00 | 0.00 | 0.00 | 72 | 1009.4 |
| 20260507084059 | 17 | 226 | 16.1 | 32.2 | 0.00 | 0.00 | 0.00 | 73 | 1009.3 |
| 20260507083559 | 17 | 232 | 14.5 | 24.1 | 0.00 | 0.00 | 0.00 | 73 | 1009.2 |
| 20260507083059 | 17 | 298 | 12.9 | 27.4 | 0.00 | 0.00 | 0.00 | 73 | 1009.2 |
| 20260507082559 | 17 | 232 | 14.5 | 27.4 | 0.00 | 0.00 | 0.00 | 73 | 1009.2 |
| 20260507082059 | 17 | 270 | 9.7 | 24.1 | 0.00 | 0.00 | 0.00 | 73 | 1009.2 |
| 20260507081559 | 17 | 248 | 12.9 | 29.0 | 0.00 | 0.00 | 0.00 | 73 | 1008.9 |
| 20260507081059 | 17 | 221 | 19.3 | 35.4 | 0.00 | 0.00 | 0.00 | 73 | 1009.0 |
| 20260507080559 | 17 | 259 | 6.4 | 35.4 | 0.00 | 0.00 | 0.00 | 73 | 1009.0 |
| 20260507080059 | 17 | 230 | 16.1 | 32.2 | 0.00 | 0.00 | 0.00 | 72 | 1008.8 |
| 20260507075559 | 17 | 208 | 17.7 | 32.2 | 0.00 | 0.00 | 0.00 | 71 | 1008.8 |
| 20260507075059 | 17 | 236 | 16.1 | 32.2 | 0.00 | 0.00 | 0.00 | 72 | 1008.5 |
| 20260507074559 | 17 | 230 | 19.3 | 35.4 | 0.00 | 0.00 | 0.00 | 72 | 1008.5 |
| 20260507074059 | 17 | 141 | 22.5 | 45.1 | 0.00 | 0.00 | 0.00 | 72 | 1008.8 |
| 20260507073559 | 17 | 233 | 12.9 | 24.1 | 0.00 | 0.00 | 0.00 | 72 | 1008.6 |
| 20260507073059 | 16 | 230 | 14.5 | 20.9 | 0.00 | 0.00 | 0.00 | 72 | 1008.5 |
| 20260507072559 | 16 | 236 | 17.7 | 35.4 | 0.00 | 0.00 | 0.00 | 74 | 1008.5 |
| 20260507072059 | 16 | 215 | 33.8 | 41.8 | 0.00 | 0.00 | 0.00 | 73 | 1008.6 |
| 20260507071559 | 16 | 231 | 27.4 | 35.4 | 0.00 | 0.00 | 0.00 | 73 | 1008.5 |
| 20260507071059 | 16 | 250 | 12.9 | 29.0 | 0.00 | 0.00 | 0.00 | 74 | 1008.5 |
| 20260507070559 | 16 | 219 | 16.1 | 29.0 | 0.00 | 0.00 | 0.00 | 74 | 1008.6 |
| 20260507070059 | 16 | 236 | 14.5 | 20.9 | 0.00 | 0.00 | 0.00 | 74 | 1008.6 |
| 20260507065559 | 16 | 229 | 9.7 | 29.0 | 0.00 | 0.00 | 0.00 | 75 | 1008.7 |
| 20260507065059 | 15 | 205 | 9.7 | 27.4 | 0.00 | 0.00 | 0.00 | 75 | 1008.7 |
| 20260507064559 | 15 | 223 | 19.3 | 41.8 | 0.00 | 0.00 | 0.00 | 75 | 1008.6 |
| 20260507064059 | 15 | 204 | 16.1 | 29.0 | 0.00 | 0.00 | 0.00 | 75 | 1008.6 |
| 20260507063559 | 16 | 220 | 12.9 | 20.9 | 0.00 | 0.00 | 0.00 | 75 | 1008.5 |
| 20260507063059 | 16 | 224 | 19.3 | 29.0 | 0.00 | 0.00 | 0.00 | 74 | 1008.4 |
| 20260507062559 | 16 | 232 | 12.9 | 24.1 | 0.00 | 0.00 | 0.00 | 74 | 1008.4 |
| 20260507062059 | 15 | 268 | 19.3 | 27.4 | 0.00 | 0.00 | 0.00 | 74 | 1008.5 |
| 20260507061559 | 15 | 263 | 9.7 | 17.7 | 0.00 | 0.00 | 0.00 | 75 | 1008.3 |
| 20260507061059 | 15 | 211 | 12.9 | 20.9 | 0.00 | 0.00 | 0.00 | 75 | 1008.4 |
| 20260507060559 | 15 | 244 | 4.8 | 6.4 | 0.00 | 0.00 | 0.00 | 74 | 1008.5 |
| 20260507060059 | 15 | 246 | 1.6 | 6.4 | 0.00 | 0.00 | 0.00 | 74 | 1008.1 |
| 20260507055559 | 15 | 246 | 3.2 | 6.4 | 0.00 | 0.00 | 0.00 | 73 | 1008.1 |